sensor_id;sensor_type;location;lat;lon;timestamp;temperature;humidity
9837;DHT22;4957;51.412;6.724;2024-02-26T00:00:16;7.80;99.90
9837;DHT22;4957;51.412;6.724;2024-02-26T00:02:41;7.80;99.90
9837;DHT22;4957;51.412;6.724;2024-02-26T00:05:08;7.80;99.90
9837;DHT22;4957;51.412;6.724;2024-02-26T00:07:34;7.80;99.90
9837;DHT22;4957;51.412;6.724;2024-02-26T00:10:00;7.80;99.90
9837;DHT22;4957;51.412;6.724;2024-02-26T00:12:25;7.80;99.90
9837;DHT22;4957;51.412;6.724;2024-02-26T00:14:51;7.80;99.90
9837;DHT22;4957;51.412;6.724;2024-02-26T00:17:18;7.80;99.90
9837;DHT22;4957;51.412;6.724;2024-02-26T00:19:44;7.80;99.90
9837;DHT22;4957;51.412;6.724;2024-02-26T00:22:09;7.80;99.90
9837;DHT22;4957;51.412;6.724;2024-02-26T00:24:35;7.80;99.90
9837;DHT22;4957;51.412;6.724;2024-02-26T00:27:01;7.80;99.90
9837;DHT22;4957;51.412;6.724;2024-02-26T00:29:26;7.80;99.90
9837;DHT22;4957;51.412;6.724;2024-02-26T00:31:52;7.80;99.90
9837;DHT22;4957;51.412;6.724;2024-02-26T00:34:18;7.80;99.90
9837;DHT22;4957;51.412;6.724;2024-02-26T00:36:44;7.80;99.90
9837;DHT22;4957;51.412;6.724;2024-02-26T00:39:11;7.80;99.90
9837;DHT22;4957;51.412;6.724;2024-02-26T00:41:40;7.80;99.90
9837;DHT22;4957;51.412;6.724;2024-02-26T00:44:06;7.80;99.90
9837;DHT22;4957;51.412;6.724;2024-02-26T00:46:32;7.80;99.90
9837;DHT22;4957;51.412;6.724;2024-02-26T00:48:58;7.70;99.90
9837;DHT22;4957;51.412;6.724;2024-02-26T00:51:24;7.70;99.90
9837;DHT22;4957;51.412;6.724;2024-02-26T00:53:49;7.70;99.90
9837;DHT22;4957;51.412;6.724;2024-02-26T00:56:15;7.70;99.90
9837;DHT22;4957;51.412;6.724;2024-02-26T00:58:41;7.70;99.90
9837;DHT22;4957;51.412;6.724;2024-02-26T01:01:06;7.70;99.90
9837;DHT22;4957;51.412;6.724;2024-02-26T01:03:32;7.70;99.90
9837;DHT22;4957;51.412;6.724;2024-02-26T01:05:58;7.70;99.90
9837;DHT22;4957;51.412;6.724;2024-02-26T01:08:23;7.70;99.90
9837;DHT22;4957;51.412;6.724;2024-02-26T01:10:49;7.70;99.90
9837;DHT22;4957;51.412;6.724;2024-02-26T01:13:15;7.70;99.90
9837;DHT22;4957;51.412;6.724;2024-02-26T01:15:41;7.80;99.90
9837;DHT22;4957;51.412;6.724;2024-02-26T01:18:06;7.70;99.90
9837;DHT22;4957;51.412;6.724;2024-02-26T01:20:32;7.70;99.90
9837;DHT22;4957;51.412;6.724;2024-02-26T01:22:58;7.70;99.90
9837;DHT22;4957;51.412;6.724;2024-02-26T01:25:23;7.70;99.90
9837;DHT22;4957;51.412;6.724;2024-02-26T01:27:49;7.70;99.90
9837;DHT22;4957;51.412;6.724;2024-02-26T01:30:15;7.70;99.90
9837;DHT22;4957;51.412;6.724;2024-02-26T01:32:42;7.80;99.90
9837;DHT22;4957;51.412;6.724;2024-02-26T01:35:08;7.70;99.90
9837;DHT22;4957;51.412;6.724;2024-02-26T01:37:36;7.70;99.90
9837;DHT22;4957;51.412;6.724;2024-02-26T01:40:02;7.70;99.90
9837;DHT22;4957;51.412;6.724;2024-02-26T01:42:32;7.70;99.90
9837;DHT22;4957;51.412;6.724;2024-02-26T01:44:59;7.70;99.90
9837;DHT22;4957;51.412;6.724;2024-02-26T01:47:26;7.70;99.90
9837;DHT22;4957;51.412;6.724;2024-02-26T01:49:52;7.70;99.90
9837;DHT22;4957;51.412;6.724;2024-02-26T01:52:19;7.80;99.90
9837;DHT22;4957;51.412;6.724;2024-02-26T01:54:45;7.80;99.90
9837;DHT22;4957;51.412;6.724;2024-02-26T01:57:12;7.80;99.90
9837;DHT22;4957;51.412;6.724;2024-02-26T01:59:39;7.70;99.90
9837;DHT22;4957;51.412;6.724;2024-02-26T02:02:07;7.70;99.90
9837;DHT22;4957;51.412;6.724;2024-02-26T02:04:35;7.70;99.90
9837;DHT22;4957;51.412;6.724;2024-02-26T02:07:02;7.70;99.90
9837;DHT22;4957;51.412;6.724;2024-02-26T02:09:28;7.70;99.90
9837;DHT22;4957;51.412;6.724;2024-02-26T02:11:54;7.70;99.90
9837;DHT22;4957;51.412;6.724;2024-02-26T02:14:21;7.70;99.90
9837;DHT22;4957;51.412;6.724;2024-02-26T02:16:48;7.70;99.90
9837;DHT22;4957;51.412;6.724;2024-02-26T02:19:13;7.70;99.90
9837;DHT22;4957;51.412;6.724;2024-02-26T02:21:39;7.70;99.90
9837;DHT22;4957;51.412;6.724;2024-02-26T02:24:05;7.70;99.90
9837;DHT22;4957;51.412;6.724;2024-02-26T02:26:31;7.70;99.90
9837;DHT22;4957;51.412;6.724;2024-02-26T02:28:57;7.70;99.90
9837;DHT22;4957;51.412;6.724;2024-02-26T02:31:24;7.70;99.90
9837;DHT22;4957;51.412;6.724;2024-02-26T02:33:50;7.70;99.90
9837;DHT22;4957;51.412;6.724;2024-02-26T02:36:16;7.60;99.90
9837;DHT22;4957;51.412;6.724;2024-02-26T02:38:51;7.70;99.90
9837;DHT22;4957;51.412;6.724;2024-02-26T02:41:17;7.70;99.90
9837;DHT22;4957;51.412;6.724;2024-02-26T02:43:44;7.70;99.90
9837;DHT22;4957;51.412;6.724;2024-02-26T02:46:09;7.60;99.90
9837;DHT22;4957;51.412;6.724;2024-02-26T02:48:37;7.70;99.90
9837;DHT22;4957;51.412;6.724;2024-02-26T02:51:04;7.60;99.90
9837;DHT22;4957;51.412;6.724;2024-02-26T02:53:29;7.60;99.90
9837;DHT22;4957;51.412;6.724;2024-02-26T02:55:55;7.60;99.90
9837;DHT22;4957;51.412;6.724;2024-02-26T02:58:21;7.60;99.90
9837;DHT22;4957;51.412;6.724;2024-02-26T03:00:46;7.60;99.90
9837;DHT22;4957;51.412;6.724;2024-02-26T03:03:12;7.60;99.90
9837;DHT22;4957;51.412;6.724;2024-02-26T03:05:38;7.60;99.90
9837;DHT22;4957;51.412;6.724;2024-02-26T03:08:04;7.60;99.90
9837;DHT22;4957;51.412;6.724;2024-02-26T03:10:30;7.60;99.90
9837;DHT22;4957;51.412;6.724;2024-02-26T03:12:55;7.60;99.90
9837;DHT22;4957;51.412;6.724;2024-02-26T03:15:22;7.60;99.90
9837;DHT22;4957;51.412;6.724;2024-02-26T03:17:47;7.60;99.90
9837;DHT22;4957;51.412;6.724;2024-02-26T03:20:13;7.60;99.90
9837;DHT22;4957;51.412;6.724;2024-02-26T03:22:39;7.60;99.90
9837;DHT22;4957;51.412;6.724;2024-02-26T03:25:06;7.60;99.90
9837;DHT22;4957;51.412;6.724;2024-02-26T03:27:32;7.60;99.90
9837;DHT22;4957;51.412;6.724;2024-02-26T03:29:58;7.60;99.90
9837;DHT22;4957;51.412;6.724;2024-02-26T03:32:24;7.60;99.90
9837;DHT22;4957;51.412;6.724;2024-02-26T03:34:50;7.60;99.90
9837;DHT22;4957;51.412;6.724;2024-02-26T03:37:19;7.60;99.90
9837;DHT22;4957;51.412;6.724;2024-02-26T03:39:45;7.60;99.90
9837;DHT22;4957;51.412;6.724;2024-02-26T03:42:11;7.60;99.90
9837;DHT22;4957;51.412;6.724;2024-02-26T03:44:36;7.60;99.90
9837;DHT22;4957;51.412;6.724;2024-02-26T03:47:02;7.60;99.90
9837;DHT22;4957;51.412;6.724;2024-02-26T03:49:28;7.60;99.90
9837;DHT22;4957;51.412;6.724;2024-02-26T03:51:54;7.60;99.90
9837;DHT22;4957;51.412;6.724;2024-02-26T03:54:19;7.60;99.90
9837;DHT22;4957;51.412;6.724;2024-02-26T03:56:45;7.60;99.90
9837;DHT22;4957;51.412;6.724;2024-02-26T03:59:10;7.50;99.90
9837;DHT22;4957;51.412;6.724;2024-02-26T04:01:36;7.60;99.90
9837;DHT22;4957;51.412;6.724;2024-02-26T04:04:02;7.50;99.90
9837;DHT22;4957;51.412;6.724;2024-02-26T04:06:28;7.60;99.90
9837;DHT22;4957;51.412;6.724;2024-02-26T04:08:53;7.50;99.90
9837;DHT22;4957;51.412;6.724;2024-02-26T04:11:19;7.50;99.90
9837;DHT22;4957;51.412;6.724;2024-02-26T04:13:46;7.50;99.90
9837;DHT22;4957;51.412;6.724;2024-02-26T04:16:15;7.50;99.90
9837;DHT22;4957;51.412;6.724;2024-02-26T04:18:42;7.50;99.90
9837;DHT22;4957;51.412;6.724;2024-02-26T04:21:07;7.50;99.90
9837;DHT22;4957;51.412;6.724;2024-02-26T04:23:33;7.50;99.90
9837;DHT22;4957;51.412;6.724;2024-02-26T04:25:59;7.50;99.90
9837;DHT22;4957;51.412;6.724;2024-02-26T04:28:25;7.50;99.90
9837;DHT22;4957;51.412;6.724;2024-02-26T04:30:51;7.50;99.90
9837;DHT22;4957;51.412;6.724;2024-02-26T04:33:17;7.50;99.90
9837;DHT22;4957;51.412;6.724;2024-02-26T04:35:43;7.40;99.90
9837;DHT22;4957;51.412;6.724;2024-02-26T04:38:09;7.40;99.90
9837;DHT22;4957;51.412;6.724;2024-02-26T04:40:34;7.40;99.90
9837;DHT22;4957;51.412;6.724;2024-02-26T04:43:00;7.40;99.90
9837;DHT22;4957;51.412;6.724;2024-02-26T04:45:26;7.50;99.90
9837;DHT22;4957;51.412;6.724;2024-02-26T04:47:51;7.40;99.90
9837;DHT22;4957;51.412;6.724;2024-02-26T04:50:17;7.40;99.90
9837;DHT22;4957;51.412;6.724;2024-02-26T04:52:43;7.40;99.90
9837;DHT22;4957;51.412;6.724;2024-02-26T04:55:08;7.40;99.90
9837;DHT22;4957;51.412;6.724;2024-02-26T04:57:34;7.40;99.90
9837;DHT22;4957;51.412;6.724;2024-02-26T05:00:00;7.40;99.90
9837;DHT22;4957;51.412;6.724;2024-02-26T05:02:26;7.40;99.90
9837;DHT22;4957;51.412;6.724;2024-02-26T05:04:51;7.40;99.90
9837;DHT22;4957;51.412;6.724;2024-02-26T05:07:17;7.40;99.90
9837;DHT22;4957;51.412;6.724;2024-02-26T05:09:44;7.30;99.90
9837;DHT22;4957;51.412;6.724;2024-02-26T05:12:10;7.40;99.90
9837;DHT22;4957;51.412;6.724;2024-02-26T05:14:36;7.40;99.90
9837;DHT22;4957;51.412;6.724;2024-02-26T05:17:01;7.40;99.90
9837;DHT22;4957;51.412;6.724;2024-02-26T05:19:27;7.40;99.90
9837;DHT22;4957;51.412;6.724;2024-02-26T05:21:53;7.40;99.90
9837;DHT22;4957;51.412;6.724;2024-02-26T05:24:18;7.40;99.90
9837;DHT22;4957;51.412;6.724;2024-02-26T05:26:48;7.40;99.90
9837;DHT22;4957;51.412;6.724;2024-02-26T05:29:13;7.40;99.90
9837;DHT22;4957;51.412;6.724;2024-02-26T05:31:42;7.40;99.90
9837;DHT22;4957;51.412;6.724;2024-02-26T05:34:07;7.40;99.90
9837;DHT22;4957;51.412;6.724;2024-02-26T05:36:33;7.40;99.90
9837;DHT22;4957;51.412;6.724;2024-02-26T05:39:00;7.40;99.90
9837;DHT22;4957;51.412;6.724;2024-02-26T05:41:26;7.40;99.90
9837;DHT22;4957;51.412;6.724;2024-02-26T05:43:53;7.40;99.90
9837;DHT22;4957;51.412;6.724;2024-02-26T05:46:19;7.40;99.90
9837;DHT22;4957;51.412;6.724;2024-02-26T05:48:47;7.40;99.90
9837;DHT22;4957;51.412;6.724;2024-02-26T05:51:13;7.30;99.90
9837;DHT22;4957;51.412;6.724;2024-02-26T05:53:39;7.30;99.90
9837;DHT22;4957;51.412;6.724;2024-02-26T05:56:06;7.40;99.90
9837;DHT22;4957;51.412;6.724;2024-02-26T05:58:31;7.40;99.90
9837;DHT22;4957;51.412;6.724;2024-02-26T06:00:57;7.30;99.90
9837;DHT22;4957;51.412;6.724;2024-02-26T06:03:22;7.40;99.90
9837;DHT22;4957;51.412;6.724;2024-02-26T06:05:48;7.30;99.90
9837;DHT22;4957;51.412;6.724;2024-02-26T06:08:14;7.30;99.90
9837;DHT22;4957;51.412;6.724;2024-02-26T06:10:40;7.30;99.90
9837;DHT22;4957;51.412;6.724;2024-02-26T06:13:06;7.30;99.90
9837;DHT22;4957;51.412;6.724;2024-02-26T06:15:31;7.30;99.90
9837;DHT22;4957;51.412;6.724;2024-02-26T06:17:57;7.30;99.90
9837;DHT22;4957;51.412;6.724;2024-02-26T06:20:23;7.30;99.90
9837;DHT22;4957;51.412;6.724;2024-02-26T06:22:49;7.30;99.90
9837;DHT22;4957;51.412;6.724;2024-02-26T06:25:14;7.30;99.90
9837;DHT22;4957;51.412;6.724;2024-02-26T06:27:40;7.30;99.90
9837;DHT22;4957;51.412;6.724;2024-02-26T06:30:06;7.30;99.90
9837;DHT22;4957;51.412;6.724;2024-02-26T06:32:34;7.30;99.90
9837;DHT22;4957;51.412;6.724;2024-02-26T06:35:00;7.30;99.90
9837;DHT22;4957;51.412;6.724;2024-02-26T06:37:25;7.30;99.90
9837;DHT22;4957;51.412;6.724;2024-02-26T06:39:51;7.30;99.90
9837;DHT22;4957;51.412;6.724;2024-02-26T06:42:17;7.30;99.90
9837;DHT22;4957;51.412;6.724;2024-02-26T06:44:43;7.30;99.90
9837;DHT22;4957;51.412;6.724;2024-02-26T06:47:09;7.30;99.90
9837;DHT22;4957;51.412;6.724;2024-02-26T06:49:35;7.20;99.90
9837;DHT22;4957;51.412;6.724;2024-02-26T06:52:01;7.30;99.90
9837;DHT22;4957;51.412;6.724;2024-02-26T06:54:27;7.30;99.90
9837;DHT22;4957;51.412;6.724;2024-02-26T06:56:52;7.20;99.90
9837;DHT22;4957;51.412;6.724;2024-02-26T06:59:18;7.20;99.90
9837;DHT22;4957;51.412;6.724;2024-02-26T07:01:45;7.20;99.90
9837;DHT22;4957;51.412;6.724;2024-02-26T07:04:11;7.20;99.90
9837;DHT22;4957;51.412;6.724;2024-02-26T07:06:37;7.20;99.90
9837;DHT22;4957;51.412;6.724;2024-02-26T07:09:02;7.20;99.90
9837;DHT22;4957;51.412;6.724;2024-02-26T07:11:28;7.20;99.90
9837;DHT22;4957;51.412;6.724;2024-02-26T07:13:54;7.20;99.90
9837;DHT22;4957;51.412;6.724;2024-02-26T07:16:19;7.20;99.90
9837;DHT22;4957;51.412;6.724;2024-02-26T07:18:45;7.20;99.90
9837;DHT22;4957;51.412;6.724;2024-02-26T07:21:13;7.20;99.90
9837;DHT22;4957;51.412;6.724;2024-02-26T07:23:39;7.20;99.90
9837;DHT22;4957;51.412;6.724;2024-02-26T07:26:05;7.20;99.90
9837;DHT22;4957;51.412;6.724;2024-02-26T07:28:31;7.20;99.90
9837;DHT22;4957;51.412;6.724;2024-02-26T07:30:56;7.20;99.90
9837;DHT22;4957;51.412;6.724;2024-02-26T07:33:22;7.20;99.90
9837;DHT22;4957;51.412;6.724;2024-02-26T07:35:48;7.10;99.90
9837;DHT22;4957;51.412;6.724;2024-02-26T07:38:13;7.20;99.90
9837;DHT22;4957;51.412;6.724;2024-02-26T07:40:39;7.20;99.90
9837;DHT22;4957;51.412;6.724;2024-02-26T07:43:06;7.20;99.90
9837;DHT22;4957;51.412;6.724;2024-02-26T07:45:32;7.20;99.90
9837;DHT22;4957;51.412;6.724;2024-02-26T07:47:58;7.20;99.90
9837;DHT22;4957;51.412;6.724;2024-02-26T07:50:23;7.20;99.90
9837;DHT22;4957;51.412;6.724;2024-02-26T07:52:49;7.20;99.90
9837;DHT22;4957;51.412;6.724;2024-02-26T07:55:16;7.20;99.90
9837;DHT22;4957;51.412;6.724;2024-02-26T07:57:43;7.30;99.90
9837;DHT22;4957;51.412;6.724;2024-02-26T08:00:09;7.30;99.90
9837;DHT22;4957;51.412;6.724;2024-02-26T08:02:38;7.30;99.90
9837;DHT22;4957;51.412;6.724;2024-02-26T08:05:04;7.30;99.90
9837;DHT22;4957;51.412;6.724;2024-02-26T08:07:30;7.30;99.90
9837;DHT22;4957;51.412;6.724;2024-02-26T08:09:56;7.30;99.90
9837;DHT22;4957;51.412;6.724;2024-02-26T08:12:21;7.30;99.90
9837;DHT22;4957;51.412;6.724;2024-02-26T08:14:47;7.40;99.90
9837;DHT22;4957;51.412;6.724;2024-02-26T08:17:13;7.30;99.90
9837;DHT22;4957;51.412;6.724;2024-02-26T08:19:38;7.40;99.90
9837;DHT22;4957;51.412;6.724;2024-02-26T08:22:04;7.40;99.90
9837;DHT22;4957;51.412;6.724;2024-02-26T08:24:30;7.40;99.90
9837;DHT22;4957;51.412;6.724;2024-02-26T08:26:56;7.40;99.90
9837;DHT22;4957;51.412;6.724;2024-02-26T08:29:21;7.40;99.90
9837;DHT22;4957;51.412;6.724;2024-02-26T08:31:47;7.40;99.90
9837;DHT22;4957;51.412;6.724;2024-02-26T08:34:13;7.50;99.90
9837;DHT22;4957;51.412;6.724;2024-02-26T08:36:39;7.40;99.90
9837;DHT22;4957;51.412;6.724;2024-02-26T08:39:05;7.40;99.90
9837;DHT22;4957;51.412;6.724;2024-02-26T08:41:30;7.40;99.90
9837;DHT22;4957;51.412;6.724;2024-02-26T08:43:56;7.40;99.90
9837;DHT22;4957;51.412;6.724;2024-02-26T08:46:23;7.40;99.90
9837;DHT22;4957;51.412;6.724;2024-02-26T08:48:49;7.50;99.90
9837;DHT22;4957;51.412;6.724;2024-02-26T08:51:15;7.50;99.90
9837;DHT22;4957;51.412;6.724;2024-02-26T08:53:40;7.50;99.90
9837;DHT22;4957;51.412;6.724;2024-02-26T08:56:06;7.50;99.90
9837;DHT22;4957;51.412;6.724;2024-02-26T08:58:32;7.50;99.90
9837;DHT22;4957;51.412;6.724;2024-02-26T09:00:57;7.60;99.90
9837;DHT22;4957;51.412;6.724;2024-02-26T09:03:23;7.60;99.90
9837;DHT22;4957;51.412;6.724;2024-02-26T09:05:49;7.60;99.90
9837;DHT22;4957;51.412;6.724;2024-02-26T09:08:15;7.60;99.90
9837;DHT22;4957;51.412;6.724;2024-02-26T09:10:41;7.60;99.90
9837;DHT22;4957;51.412;6.724;2024-02-26T09:13:07;7.60;99.90
9837;DHT22;4957;51.412;6.724;2024-02-26T09:15:33;7.60;99.90
9837;DHT22;4957;51.412;6.724;2024-02-26T09:17:59;7.60;99.90
9837;DHT22;4957;51.412;6.724;2024-02-26T09:20:25;7.60;99.90
9837;DHT22;4957;51.412;6.724;2024-02-26T09:22:51;7.60;99.90
9837;DHT22;4957;51.412;6.724;2024-02-26T09:25:17;7.60;99.90
9837;DHT22;4957;51.412;6.724;2024-02-26T09:27:43;7.60;99.90
9837;DHT22;4957;51.412;6.724;2024-02-26T09:30:13;7.60;99.90
9837;DHT22;4957;51.412;6.724;2024-02-26T09:32:39;7.60;99.90
9837;DHT22;4957;51.412;6.724;2024-02-26T09:35:06;7.60;99.90
9837;DHT22;4957;51.412;6.724;2024-02-26T09:37:32;7.60;99.90
9837;DHT22;4957;51.412;6.724;2024-02-26T09:39:59;7.70;99.90
9837;DHT22;4957;51.412;6.724;2024-02-26T09:42:26;7.60;99.90
9837;DHT22;4957;51.412;6.724;2024-02-26T09:44:54;7.60;99.90
9837;DHT22;4957;51.412;6.724;2024-02-26T09:47:28;7.70;99.90
9837;DHT22;4957;51.412;6.724;2024-02-26T09:49:56;7.60;99.90
9837;DHT22;4957;51.412;6.724;2024-02-26T09:52:23;7.70;99.90
9837;DHT22;4957;51.412;6.724;2024-02-26T09:54:49;7.70;99.90
9837;DHT22;4957;51.412;6.724;2024-02-26T09:57:16;7.60;99.90
9837;DHT22;4957;51.412;6.724;2024-02-26T09:59:43;7.60;99.90
9837;DHT22;4957;51.412;6.724;2024-02-26T10:02:13;7.70;99.90
9837;DHT22;4957;51.412;6.724;2024-02-26T10:04:40;7.70;99.90
9837;DHT22;4957;51.412;6.724;2024-02-26T10:07:11;7.70;99.90
9837;DHT22;4957;51.412;6.724;2024-02-26T10:09:37;7.70;99.90
9837;DHT22;4957;51.412;6.724;2024-02-26T10:12:06;7.70;99.90
9837;DHT22;4957;51.412;6.724;2024-02-26T10:14:33;7.70;99.90
9837;DHT22;4957;51.412;6.724;2024-02-26T10:16:59;7.70;99.90
9837;DHT22;4957;51.412;6.724;2024-02-26T10:19:30;7.70;99.90
9837;DHT22;4957;51.412;6.724;2024-02-26T10:22:01;7.70;99.90
9837;DHT22;4957;51.412;6.724;2024-02-26T10:24:28;7.70;99.90
9837;DHT22;4957;51.412;6.724;2024-02-26T10:26:57;7.70;99.90
9837;DHT22;4957;51.412;6.724;2024-02-26T10:29:25;7.80;99.90
9837;DHT22;4957;51.412;6.724;2024-02-26T10:31:51;7.70;99.90
9837;DHT22;4957;51.412;6.724;2024-02-26T10:34:18;7.80;99.90
9837;DHT22;4957;51.412;6.724;2024-02-26T10:36:44;7.80;99.90
9837;DHT22;4957;51.412;6.724;2024-02-26T10:39:13;7.80;99.90
9837;DHT22;4957;51.412;6.724;2024-02-26T10:41:40;7.80;99.90
9837;DHT22;4957;51.412;6.724;2024-02-26T10:44:11;7.80;99.90
9837;DHT22;4957;51.412;6.724;2024-02-26T10:46:38;7.80;99.90
9837;DHT22;4957;51.412;6.724;2024-02-26T10:49:04;7.90;99.90
9837;DHT22;4957;51.412;6.724;2024-02-26T10:51:31;7.80;99.90
9837;DHT22;4957;51.412;6.724;2024-02-26T10:54:00;7.90;99.90
9837;DHT22;4957;51.412;6.724;2024-02-26T10:56:28;7.90;99.90
9837;DHT22;4957;51.412;6.724;2024-02-26T10:58:58;7.90;99.90
9837;DHT22;4957;51.412;6.724;2024-02-26T11:01:24;7.90;99.90
9837;DHT22;4957;51.412;6.724;2024-02-26T11:03:55;7.90;99.90
9837;DHT22;4957;51.412;6.724;2024-02-26T11:06:21;7.90;99.90
9837;DHT22;4957;51.412;6.724;2024-02-26T11:08:50;8.00;99.90
9837;DHT22;4957;51.412;6.724;2024-02-26T11:11:17;8.00;99.90
9837;DHT22;4957;51.412;6.724;2024-02-26T11:13:47;8.00;99.90
9837;DHT22;4957;51.412;6.724;2024-02-26T11:16:21;8.00;99.90
9837;DHT22;4957;51.412;6.724;2024-02-26T11:18:48;8.10;99.90
9837;DHT22;4957;51.412;6.724;2024-02-26T11:21:17;8.10;99.90
9837;DHT22;4957;51.412;6.724;2024-02-26T11:23:53;8.10;99.90
9837;DHT22;4957;51.412;6.724;2024-02-26T11:26:20;8.20;99.90
9837;DHT22;4957;51.412;6.724;2024-02-26T11:28:48;8.20;99.90
9837;DHT22;4957;51.412;6.724;2024-02-26T11:31:14;8.20;99.90
9837;DHT22;4957;51.412;6.724;2024-02-26T11:33:40;8.20;99.90
9837;DHT22;4957;51.412;6.724;2024-02-26T11:36:12;8.30;99.90
9837;DHT22;4957;51.412;6.724;2024-02-26T11:38:39;8.30;99.90
9837;DHT22;4957;51.412;6.724;2024-02-26T11:41:06;8.30;99.90
9837;DHT22;4957;51.412;6.724;2024-02-26T11:46:32;8.40;99.90
9837;DHT22;4957;51.412;6.724;2024-02-26T11:49:02;8.40;99.90
9837;DHT22;4957;51.412;6.724;2024-02-26T11:51:33;8.40;99.90
9837;DHT22;4957;51.412;6.724;2024-02-26T11:53:59;8.50;99.90
9837;DHT22;4957;51.412;6.724;2024-02-26T11:56:25;8.50;99.90
9837;DHT22;4957;51.412;6.724;2024-02-26T11:59:08;8.50;99.90
9837;DHT22;4957;51.412;6.724;2024-02-26T12:01:44;8.50;99.90
9837;DHT22;4957;51.412;6.724;2024-02-26T12:04:18;8.60;99.90
9837;DHT22;4957;51.412;6.724;2024-02-26T12:06:52;8.60;99.90
9837;DHT22;4957;51.412;6.724;2024-02-26T12:09:38;8.70;99.90
9837;DHT22;4957;51.412;6.724;2024-02-26T12:12:09;8.70;99.90
9837;DHT22;4957;51.412;6.724;2024-02-26T12:14:51;8.80;99.90
9837;DHT22;4957;51.412;6.724;2024-02-26T12:17:25;8.80;99.90
9837;DHT22;4957;51.412;6.724;2024-02-26T12:19:51;8.80;99.90
9837;DHT22;4957;51.412;6.724;2024-02-26T12:22:18;8.90;99.90
9837;DHT22;4957;51.412;6.724;2024-02-26T12:24:44;8.90;99.90
9837;DHT22;4957;51.412;6.724;2024-02-26T12:27:10;8.90;99.90
9837;DHT22;4957;51.412;6.724;2024-02-26T12:29:36;8.90;99.90
9837;DHT22;4957;51.412;6.724;2024-02-26T12:32:03;9.00;99.90
9837;DHT22;4957;51.412;6.724;2024-02-26T12:34:30;9.00;99.90
9837;DHT22;4957;51.412;6.724;2024-02-26T12:36:56;9.00;99.90
9837;DHT22;4957;51.412;6.724;2024-02-26T12:39:22;9.10;99.90
9837;DHT22;4957;51.412;6.724;2024-02-26T12:41:48;9.10;99.90
9837;DHT22;4957;51.412;6.724;2024-02-26T12:44:18;9.10;99.90
9837;DHT22;4957;51.412;6.724;2024-02-26T12:46:44;9.10;99.90
9837;DHT22;4957;51.412;6.724;2024-02-26T12:49:15;9.10;99.90
9837;DHT22;4957;51.412;6.724;2024-02-26T12:51:41;9.20;99.90
9837;DHT22;4957;51.412;6.724;2024-02-26T12:54:07;9.20;99.90
9837;DHT22;4957;51.412;6.724;2024-02-26T12:56:34;9.10;99.90
9837;DHT22;4957;51.412;6.724;2024-02-26T12:59:00;9.20;99.90
9837;DHT22;4957;51.412;6.724;2024-02-26T13:01:26;9.20;99.90
9837;DHT22;4957;51.412;6.724;2024-02-26T13:03:53;9.30;99.90
9837;DHT22;4957;51.412;6.724;2024-02-26T13:06:19;9.20;99.90
9837;DHT22;4957;51.412;6.724;2024-02-26T13:08:47;9.20;99.90
9837;DHT22;4957;51.412;6.724;2024-02-26T13:11:13;9.30;99.90
9837;DHT22;4957;51.412;6.724;2024-02-26T13:13:39;9.30;99.90
9837;DHT22;4957;51.412;6.724;2024-02-26T13:16:10;9.30;99.90
9837;DHT22;4957;51.412;6.724;2024-02-26T13:18:39;9.30;99.90
9837;DHT22;4957;51.412;6.724;2024-02-26T13:21:13;9.30;99.90
9837;DHT22;4957;51.412;6.724;2024-02-26T13:23:42;9.30;99.90
9837;DHT22;4957;51.412;6.724;2024-02-26T13:26:11;9.30;99.90
9837;DHT22;4957;51.412;6.724;2024-02-26T13:28:37;9.30;99.90
9837;DHT22;4957;51.412;6.724;2024-02-26T13:31:03;9.30;99.90
9837;DHT22;4957;51.412;6.724;2024-02-26T13:33:31;9.30;99.90
9837;DHT22;4957;51.412;6.724;2024-02-26T13:35:59;9.30;99.90
9837;DHT22;4957;51.412;6.724;2024-02-26T13:38:25;9.30;99.90
9837;DHT22;4957;51.412;6.724;2024-02-26T13:40:52;9.30;99.90
9837;DHT22;4957;51.412;6.724;2024-02-26T13:43:18;9.30;99.90
9837;DHT22;4957;51.412;6.724;2024-02-26T13:45:45;9.30;99.90
9837;DHT22;4957;51.412;6.724;2024-02-26T13:48:11;9.30;99.90
9837;DHT22;4957;51.412;6.724;2024-02-26T13:50:38;9.30;99.90
9837;DHT22;4957;51.412;6.724;2024-02-26T13:53:04;9.30;99.90
9837;DHT22;4957;51.412;6.724;2024-02-26T13:55:31;9.30;99.90
9837;DHT22;4957;51.412;6.724;2024-02-26T13:57:58;9.30;99.90
9837;DHT22;4957;51.412;6.724;2024-02-26T14:00:25;9.30;99.90
9837;DHT22;4957;51.412;6.724;2024-02-26T14:02:50;9.30;99.90
9837;DHT22;4957;51.412;6.724;2024-02-26T14:05:16;9.30;99.90
9837;DHT22;4957;51.412;6.724;2024-02-26T14:07:42;9.30;99.90
9837;DHT22;4957;51.412;6.724;2024-02-26T14:10:12;9.30;99.90
9837;DHT22;4957;51.412;6.724;2024-02-26T14:12:38;9.20;99.90
9837;DHT22;4957;51.412;6.724;2024-02-26T14:15:06;9.30;99.90
9837;DHT22;4957;51.412;6.724;2024-02-26T14:17:32;9.30;99.90
9837;DHT22;4957;51.412;6.724;2024-02-26T14:19:58;9.30;99.90
9837;DHT22;4957;51.412;6.724;2024-02-26T14:22:25;9.30;99.90
9837;DHT22;4957;51.412;6.724;2024-02-26T14:24:56;9.30;99.90
9837;DHT22;4957;51.412;6.724;2024-02-26T14:27:22;9.30;99.90
9837;DHT22;4957;51.412;6.724;2024-02-26T14:29:48;9.30;99.90
9837;DHT22;4957;51.412;6.724;2024-02-26T14:32:14;9.30;99.90
9837;DHT22;4957;51.412;6.724;2024-02-26T14:34:40;9.30;99.90
9837;DHT22;4957;51.412;6.724;2024-02-26T14:37:06;9.20;99.90
9837;DHT22;4957;51.412;6.724;2024-02-26T14:39:33;9.20;99.90
9837;DHT22;4957;51.412;6.724;2024-02-26T14:41:59;9.20;99.90
9837;DHT22;4957;51.412;6.724;2024-02-26T14:44:25;9.30;99.90
9837;DHT22;4957;51.412;6.724;2024-02-26T14:46:51;9.20;99.90
9837;DHT22;4957;51.412;6.724;2024-02-26T14:49:17;9.20;99.90
9837;DHT22;4957;51.412;6.724;2024-02-26T14:51:43;9.20;99.90
9837;DHT22;4957;51.412;6.724;2024-02-26T14:54:11;9.20;99.90
9837;DHT22;4957;51.412;6.724;2024-02-26T14:56:37;9.20;99.90
9837;DHT22;4957;51.412;6.724;2024-02-26T14:59:03;9.20;99.90
9837;DHT22;4957;51.412;6.724;2024-02-26T15:01:28;9.20;99.90
9837;DHT22;4957;51.412;6.724;2024-02-26T15:03:54;9.20;99.90
9837;DHT22;4957;51.412;6.724;2024-02-26T15:06:20;9.20;99.90
9837;DHT22;4957;51.412;6.724;2024-02-26T15:08:47;9.20;99.90
9837;DHT22;4957;51.412;6.724;2024-02-26T15:11:12;9.20;99.90
9837;DHT22;4957;51.412;6.724;2024-02-26T15:13:38;9.10;99.90
9837;DHT22;4957;51.412;6.724;2024-02-26T15:16:05;9.10;99.90
9837;DHT22;4957;51.412;6.724;2024-02-26T15:18:31;9.10;99.90
9837;DHT22;4957;51.412;6.724;2024-02-26T15:20:57;9.20;99.90
9837;DHT22;4957;51.412;6.724;2024-02-26T15:23:23;9.10;99.90
9837;DHT22;4957;51.412;6.724;2024-02-26T15:25:49;9.10;99.90
9837;DHT22;4957;51.412;6.724;2024-02-26T15:28:15;9.10;99.90
9837;DHT22;4957;51.412;6.724;2024-02-26T15:30:41;9.10;99.90
9837;DHT22;4957;51.412;6.724;2024-02-26T15:33:07;9.10;99.90
9837;DHT22;4957;51.412;6.724;2024-02-26T15:35:33;9.00;99.90
9837;DHT22;4957;51.412;6.724;2024-02-26T15:37:59;9.00;99.90
9837;DHT22;4957;51.412;6.724;2024-02-26T15:40:25;9.00;99.90
9837;DHT22;4957;51.412;6.724;2024-02-26T15:42:50;9.00;99.90
9837;DHT22;4957;51.412;6.724;2024-02-26T15:45:16;9.00;99.90
9837;DHT22;4957;51.412;6.724;2024-02-26T15:47:42;9.00;99.90
9837;DHT22;4957;51.412;6.724;2024-02-26T15:50:08;9.00;99.90
9837;DHT22;4957;51.412;6.724;2024-02-26T15:52:37;9.00;99.90
9837;DHT22;4957;51.412;6.724;2024-02-26T15:55:04;8.90;99.90
9837;DHT22;4957;51.412;6.724;2024-02-26T15:57:30;8.90;99.90
9837;DHT22;4957;51.412;6.724;2024-02-26T15:59:56;8.90;99.90
9837;DHT22;4957;51.412;6.724;2024-02-26T16:02:26;8.90;99.90
9837;DHT22;4957;51.412;6.724;2024-02-26T16:04:52;8.90;99.90
9837;DHT22;4957;51.412;6.724;2024-02-26T16:07:23;8.90;99.90
9837;DHT22;4957;51.412;6.724;2024-02-26T16:09:54;8.90;99.90
9837;DHT22;4957;51.412;6.724;2024-02-26T16:12:26;8.90;99.90
9837;DHT22;4957;51.412;6.724;2024-02-26T16:14:56;8.80;99.90